Terminal Aerodrome Forecast
Issued by NWS

Home | Current Version | Previous Version | Text Only | Print | Product List | Glossary On
Versions: 1 2 3 4 5 6 7 8 9 10 11 12 13 14 15 16
000
FTUS46 KPDT 291300 AAA
TAFPSC
TAF AMD
KPSC 291334Z 2914/3012 28007KT P6SM OVC070
     FM291500 35017G27KT P6SM SCT040 BKN080
     FM300300 35015KT P6SM FEW050=

USA.gov is the U.S. government's official web portal to all federal, state and local government web resources and services.